sensor_id;sensor_type;location;lat;lon;timestamp;temperature;humidity
70807;DHT22;58882;52.170;5.386;2023-02-26T00:00:14;14.60;36.40
70807;DHT22;58882;52.170;5.386;2023-02-26T00:02:54;14.60;36.80
70807;DHT22;58882;52.170;5.386;2023-02-26T00:05:41;14.60;36.70
70807;DHT22;58882;52.170;5.386;2023-02-26T00:08:21;14.60;36.80
70807;DHT22;58882;52.170;5.386;2023-02-26T00:11:09;14.60;36.80
70807;DHT22;58882;52.170;5.386;2023-02-26T00:13:44;14.70;36.90
70807;DHT22;58882;52.170;5.386;2023-02-26T00:16:38;14.70;36.90
70807;DHT22;58882;52.170;5.386;2023-02-26T00:19:12;14.70;36.90
70807;DHT22;58882;52.170;5.386;2023-02-26T00:22:06;14.70;36.90
70807;DHT22;58882;52.170;5.386;2023-02-26T00:24:40;14.70;37.00
70807;DHT22;58882;52.170;5.386;2023-02-26T00:27:34;14.60;37.00
70807;DHT22;58882;52.170;5.386;2023-02-26T00:30:08;14.60;37.10
70807;DHT22;58882;52.170;5.386;2023-02-26T00:33:04;14.70;37.20
70807;DHT22;58882;52.170;5.386;2023-02-26T00:35:38;14.60;37.20
70807;DHT22;58882;52.170;5.386;2023-02-26T00:38:33;14.60;37.20
70807;DHT22;58882;52.170;5.386;2023-02-26T00:41:15;14.60;37.40
70807;DHT22;58882;52.170;5.386;2023-02-26T00:44:02;14.60;37.60
70807;DHT22;58882;52.170;5.386;2023-02-26T00:46:39;14.60;37.60
70807;DHT22;58882;52.170;5.386;2023-02-26T00:49:51;14.60;37.50
70807;DHT22;58882;52.170;5.386;2023-02-26T00:55:37;14.60;37.60
70807;DHT22;58882;52.170;5.386;2023-02-26T00:58:17;14.60;37.60
70807;DHT22;58882;52.170;5.386;2023-02-26T01:01:11;14.60;37.70
70807;DHT22;58882;52.170;5.386;2023-02-26T01:03:51;14.60;37.60
70807;DHT22;58882;52.170;5.386;2023-02-26T01:06:44;14.60;37.70
70807;DHT22;58882;52.170;5.386;2023-02-26T01:09:34;14.60;37.80
70807;DHT22;58882;52.170;5.386;2023-02-26T01:12:21;14.60;37.70
70807;DHT22;58882;52.170;5.386;2023-02-26T01:15:02;14.60;37.90
70807;DHT22;58882;52.170;5.386;2023-02-26T01:20:53;14.60;38.10
70807;DHT22;58882;52.170;5.386;2023-02-26T01:23:44;14.60;38.00
70807;DHT22;58882;52.170;5.386;2023-02-26T01:26:27;14.60;38.20
70807;DHT22;58882;52.170;5.386;2023-02-26T01:29:14;14.60;38.20
70807;DHT22;58882;52.170;5.386;2023-02-26T01:32:15;14.60;38.10
70807;DHT22;58882;52.170;5.386;2023-02-26T01:41:37;14.60;38.60
70807;DHT22;58882;52.170;5.386;2023-02-26T01:44:19;14.60;38.70
70807;DHT22;58882;52.170;5.386;2023-02-26T01:47:42;14.60;38.70
70807;DHT22;58882;52.170;5.386;2023-02-26T01:50:25;14.60;38.60
70807;DHT22;58882;52.170;5.386;2023-02-26T01:53:23;14.60;38.60
70807;DHT22;58882;52.170;5.386;2023-02-26T01:56:00;14.60;38.70
70807;DHT22;58882;52.170;5.386;2023-02-26T01:58:55;14.60;38.70
70807;DHT22;58882;52.170;5.386;2023-02-26T02:01:28;14.60;38.60
70807;DHT22;58882;52.170;5.386;2023-02-26T02:04:23;14.60;38.50
70807;DHT22;58882;52.170;5.386;2023-02-26T02:07:00;14.60;38.50
70807;DHT22;58882;52.170;5.386;2023-02-26T02:09:54;14.60;38.50
70807;DHT22;58882;52.170;5.386;2023-02-26T02:12:39;14.60;38.80
70807;DHT22;58882;52.170;5.386;2023-02-26T02:15:43;14.60;38.80
70807;DHT22;58882;52.170;5.386;2023-02-26T02:34:47;14.60;38.50
70807;DHT22;58882;52.170;5.386;2023-02-26T02:37:13;14.50;38.40
70807;DHT22;58882;52.170;5.386;2023-02-26T02:40:21;14.50;39.40
70807;DHT22;58882;52.170;5.386;2023-02-26T02:43:03;14.50;38.60
70807;DHT22;58882;52.170;5.386;2023-02-26T02:46:22;14.50;38.80
70807;DHT22;58882;52.170;5.386;2023-02-26T02:49:25;14.50;39.70
70807;DHT22;58882;52.170;5.386;2023-02-26T02:55:24;14.40;38.60
70807;DHT22;58882;52.170;5.386;2023-02-26T02:58:11;14.50;38.50
70807;DHT22;58882;52.170;5.386;2023-02-26T03:01:00;14.50;38.40
70807;DHT22;58882;52.170;5.386;2023-02-26T03:06:46;14.50;38.30
70807;DHT22;58882;52.170;5.386;2023-02-26T03:09:28;14.50;38.20
70807;DHT22;58882;52.170;5.386;2023-02-26T03:12:17;14.50;38.30
70807;DHT22;58882;52.170;5.386;2023-02-26T03:14:58;14.50;38.40
70807;DHT22;58882;52.170;5.386;2023-02-26T03:17:53;14.40;38.10
70807;DHT22;58882;52.170;5.386;2023-02-26T03:20:48;14.40;39.00
70807;DHT22;58882;52.170;5.386;2023-02-26T03:24:03;14.40;37.90
70807;DHT22;58882;52.170;5.386;2023-02-26T03:30:20;14.40;37.80
70807;DHT22;58882;52.170;5.386;2023-02-26T03:42:35;14.40;37.90
70807;DHT22;58882;52.170;5.386;2023-02-26T03:45:21;14.40;37.80
70807;DHT22;58882;52.170;5.386;2023-02-26T03:48:12;14.30;37.60
70807;DHT22;58882;52.170;5.386;2023-02-26T03:51:13;14.30;37.70
70807;DHT22;58882;52.170;5.386;2023-02-26T03:54:36;14.30;37.70
70807;DHT22;58882;52.170;5.386;2023-02-26T03:57:30;14.30;37.60
70807;DHT22;58882;52.170;5.386;2023-02-26T04:00:38;14.30;38.60
70807;DHT22;58882;52.170;5.386;2023-02-26T04:06:54;14.30;37.60
70807;DHT22;58882;52.170;5.386;2023-02-26T04:09:35;14.30;37.40
70807;DHT22;58882;52.170;5.386;2023-02-26T04:12:24;14.30;37.60
70807;DHT22;58882;52.170;5.386;2023-02-26T04:15:07;14.30;37.50
70807;DHT22;58882;52.170;5.386;2023-02-26T04:17:54;14.30;37.60
70807;DHT22;58882;52.170;5.386;2023-02-26T04:20:34;14.20;37.60
70807;DHT22;58882;52.170;5.386;2023-02-26T04:23:22;14.30;38.60
70807;DHT22;58882;52.170;5.386;2023-02-26T04:26:02;14.20;37.40
70807;DHT22;58882;52.170;5.386;2023-02-26T04:28:50;14.20;37.40
70807;DHT22;58882;52.170;5.386;2023-02-26T04:31:30;14.20;37.30
70807;DHT22;58882;52.170;5.386;2023-02-26T04:34:17;14.20;37.30
70807;DHT22;58882;52.170;5.386;2023-02-26T04:36:58;14.20;37.30
70807;DHT22;58882;52.170;5.386;2023-02-26T04:39:45;14.20;37.30
70807;DHT22;58882;52.170;5.386;2023-02-26T04:42:25;14.20;37.30
70807;DHT22;58882;52.170;5.386;2023-02-26T04:45:12;14.20;37.30
70807;DHT22;58882;52.170;5.386;2023-02-26T04:47:59;14.20;37.30
70807;DHT22;58882;52.170;5.386;2023-02-26T04:50:39;14.20;37.20
70807;DHT22;58882;52.170;5.386;2023-02-26T04:53:26;14.20;37.30
70807;DHT22;58882;52.170;5.386;2023-02-26T04:55:59;14.20;37.50
70807;DHT22;58882;52.170;5.386;2023-02-26T04:58:53;14.20;37.40
70807;DHT22;58882;52.170;5.386;2023-02-26T05:01:34;14.20;37.50
70807;DHT22;58882;52.170;5.386;2023-02-26T05:04:21;14.20;38.40
70807;DHT22;58882;52.170;5.386;2023-02-26T05:07:01;14.20;37.50
70807;DHT22;58882;52.170;5.386;2023-02-26T05:09:55;14.20;37.40
70807;DHT22;58882;52.170;5.386;2023-02-26T05:12:28;14.10;37.40
70807;DHT22;58882;52.170;5.386;2023-02-26T05:15:22;14.10;37.40
70807;DHT22;58882;52.170;5.386;2023-02-26T05:18:02;14.10;37.40
70807;DHT22;58882;52.170;5.386;2023-02-26T05:20:51;14.10;37.20
70807;DHT22;58882;52.170;5.386;2023-02-26T05:23:32;14.10;37.30
70807;DHT22;58882;52.170;5.386;2023-02-26T05:26:26;14.10;37.40
70807;DHT22;58882;52.170;5.386;2023-02-26T05:29:06;14.10;37.60
70807;DHT22;58882;52.170;5.386;2023-02-26T05:32:01;14.00;37.50
70807;DHT22;58882;52.170;5.386;2023-02-26T05:34:42;14.00;37.40
70807;DHT22;58882;52.170;5.386;2023-02-26T05:37:29;14.10;37.60
70807;DHT22;58882;52.170;5.386;2023-02-26T05:40:10;14.00;37.50
70807;DHT22;58882;52.170;5.386;2023-02-26T05:42:57;14.00;37.40
70807;DHT22;58882;52.170;5.386;2023-02-26T05:45:37;14.10;37.50
70807;DHT22;58882;52.170;5.386;2023-02-26T05:48:24;14.10;37.60
70807;DHT22;58882;52.170;5.386;2023-02-26T05:51:04;14.00;37.50
70807;DHT22;58882;52.170;5.386;2023-02-26T05:53:58;14.00;37.50
70807;DHT22;58882;52.170;5.386;2023-02-26T05:56:38;14.00;37.60
70807;DHT22;58882;52.170;5.386;2023-02-26T05:59:25;14.00;37.60
70807;DHT22;58882;52.170;5.386;2023-02-26T06:02:05;14.00;37.70
70807;DHT22;58882;52.170;5.386;2023-02-26T06:04:59;14.00;37.80
70807;DHT22;58882;52.170;5.386;2023-02-26T06:07:39;14.00;37.80
70807;DHT22;58882;52.170;5.386;2023-02-26T06:10:33;14.00;37.80
70807;DHT22;58882;52.170;5.386;2023-02-26T06:13:13;14.00;37.70
70807;DHT22;58882;52.170;5.386;2023-02-26T06:16:00;14.00;37.60
70807;DHT22;58882;52.170;5.386;2023-02-26T06:18:40;14.00;37.80
70807;DHT22;58882;52.170;5.386;2023-02-26T06:21:27;14.00;37.80
70807;DHT22;58882;52.170;5.386;2023-02-26T06:24:07;14.00;37.80
70807;DHT22;58882;52.170;5.386;2023-02-26T06:27:01;14.00;37.90
70807;DHT22;58882;52.170;5.386;2023-02-26T06:29:41;14.00;37.90
70807;DHT22;58882;52.170;5.386;2023-02-26T06:32:28;14.00;38.00
70807;DHT22;58882;52.170;5.386;2023-02-26T06:35:02;14.00;37.80
70807;DHT22;58882;52.170;5.386;2023-02-26T06:37:56;14.00;37.60
70807;DHT22;58882;52.170;5.386;2023-02-26T06:40:36;14.00;37.40
70807;DHT22;58882;52.170;5.386;2023-02-26T06:43:31;14.00;37.10
70807;DHT22;58882;52.170;5.386;2023-02-26T06:46:25;14.00;37.00
70807;DHT22;58882;52.170;5.386;2023-02-26T06:49:19;14.00;36.80
70807;DHT22;58882;52.170;5.386;2023-02-26T06:51:59;14.00;36.70
70807;DHT22;58882;52.170;5.386;2023-02-26T06:54:46;14.00;36.60
70807;DHT22;58882;52.170;5.386;2023-02-26T06:57:26;14.00;36.40
70807;DHT22;58882;52.170;5.386;2023-02-26T07:00:20;14.00;36.50
70807;DHT22;58882;52.170;5.386;2023-02-26T07:02:54;14.00;36.30
70807;DHT22;58882;52.170;5.386;2023-02-26T07:05:48;14.00;36.40
70807;DHT22;58882;52.170;5.386;2023-02-26T07:08:22;14.00;36.40
70807;DHT22;58882;52.170;5.386;2023-02-26T07:11:16;14.00;36.70
70807;DHT22;58882;52.170;5.386;2023-02-26T07:13:56;14.00;36.70
70807;DHT22;58882;52.170;5.386;2023-02-26T07:16:50;14.00;36.70
70807;DHT22;58882;52.170;5.386;2023-02-26T07:19:23;14.10;37.70
70807;DHT22;58882;52.170;5.386;2023-02-26T07:22:18;14.10;36.80
70807;DHT22;58882;52.170;5.386;2023-02-26T07:24:58;14.10;37.50
70807;DHT22;58882;52.170;5.386;2023-02-26T07:27:45;14.20;36.60
70807;DHT22;58882;52.170;5.386;2023-02-26T07:30:25;14.30;36.50
70807;DHT22;58882;52.170;5.386;2023-02-26T07:33:19;14.50;36.50
70807;DHT22;58882;52.170;5.386;2023-02-26T07:36:00;14.60;36.10
70807;DHT22;58882;52.170;5.386;2023-02-26T07:38:47;14.80;36.10
70807;DHT22;58882;52.170;5.386;2023-02-26T07:41:20;14.90;35.80
70807;DHT22;58882;52.170;5.386;2023-02-26T07:44:19;15.10;35.80
70807;DHT22;58882;52.170;5.386;2023-02-26T07:46:52;15.20;35.60
70807;DHT22;58882;52.170;5.386;2023-02-26T07:49:46;15.40;35.60
70807;DHT22;58882;52.170;5.386;2023-02-26T07:52:19;15.60;35.30
70807;DHT22;58882;52.170;5.386;2023-02-26T07:55:13;15.70;35.10
70807;DHT22;58882;52.170;5.386;2023-02-26T07:57:53;15.90;35.00
70807;DHT22;58882;52.170;5.386;2023-02-26T08:00:47;16.00;34.60
70807;DHT22;58882;52.170;5.386;2023-02-26T08:03:27;16.20;35.30
70807;DHT22;58882;52.170;5.386;2023-02-26T08:06:14;16.30;34.00
70807;DHT22;58882;52.170;5.386;2023-02-26T08:08:54;16.40;33.90
70807;DHT22;58882;52.170;5.386;2023-02-26T08:11:41;16.50;33.90
70807;DHT22;58882;52.170;5.386;2023-02-26T08:14:15;16.50;33.50
70807;DHT22;58882;52.170;5.386;2023-02-26T08:17:09;16.80;33.60
70807;DHT22;58882;52.170;5.386;2023-02-26T08:19:43;17.20;32.70
70807;DHT22;58882;52.170;5.386;2023-02-26T08:22:37;17.80;31.90
70807;DHT22;58882;52.170;5.386;2023-02-26T08:25:10;18.40;31.50
70807;DHT22;58882;52.170;5.386;2023-02-26T08:28:04;18.90;30.10
70807;DHT22;58882;52.170;5.386;2023-02-26T08:30:44;19.50;30.00
70807;DHT22;58882;52.170;5.386;2023-02-26T08:33:32;19.90;29.10
70807;DHT22;58882;52.170;5.386;2023-02-26T08:36:12;20.30;28.00
70807;DHT22;58882;52.170;5.386;2023-02-26T08:39:00;20.70;27.60
70807;DHT22;58882;52.170;5.386;2023-02-26T08:41:40;20.90;27.60
70807;DHT22;58882;52.170;5.386;2023-02-26T08:44:34;21.20;27.40
70807;DHT22;58882;52.170;5.386;2023-02-26T08:47:14;21.50;26.90
70807;DHT22;58882;52.170;5.386;2023-02-26T08:50:09;21.70;26.60
70807;DHT22;58882;52.170;5.386;2023-02-26T08:53:04;21.90;26.10
70807;DHT22;58882;52.170;5.386;2023-02-26T08:55:38;22.10;25.60
70807;DHT22;58882;52.170;5.386;2023-02-26T08:58:32;22.40;25.40
70807;DHT22;58882;52.170;5.386;2023-02-26T09:01:05;22.60;24.90
70807;DHT22;58882;52.170;5.386;2023-02-26T09:03:59;22.80;25.50
70807;DHT22;58882;52.170;5.386;2023-02-26T09:06:32;22.90;24.20
70807;DHT22;58882;52.170;5.386;2023-02-26T09:09:26;23.10;24.00
70807;DHT22;58882;52.170;5.386;2023-02-26T09:12:06;23.30;23.60
70807;DHT22;58882;52.170;5.386;2023-02-26T09:15:00;23.50;23.40
70807;DHT22;58882;52.170;5.386;2023-02-26T09:17:40;23.60;23.00
70807;DHT22;58882;52.170;5.386;2023-02-26T09:20:35;23.70;22.70
70807;DHT22;58882;52.170;5.386;2023-02-26T09:23:10;23.90;23.30
70807;DHT22;58882;52.170;5.386;2023-02-26T09:26:04;24.00;22.30
70807;DHT22;58882;52.170;5.386;2023-02-26T09:28:37;24.10;22.10
70807;DHT22;58882;52.170;5.386;2023-02-26T09:31:31;24.30;22.00
70807;DHT22;58882;52.170;5.386;2023-02-26T09:34:11;24.30;21.70
70807;DHT22;58882;52.170;5.386;2023-02-26T09:36:59;24.50;21.60
70807;DHT22;58882;52.170;5.386;2023-02-26T09:39:33;24.50;21.30
70807;DHT22;58882;52.170;5.386;2023-02-26T09:43:13;24.60;21.30
70807;DHT22;58882;52.170;5.386;2023-02-26T09:45:51;24.60;21.10
70807;DHT22;58882;52.170;5.386;2023-02-26T09:48:47;24.80;21.30
70807;DHT22;58882;52.170;5.386;2023-02-26T09:51:29;24.80;21.20
70807;DHT22;58882;52.170;5.386;2023-02-26T09:54:27;24.90;21.10
70807;DHT22;58882;52.170;5.386;2023-02-26T09:57:04;24.90;21.00
70807;DHT22;58882;52.170;5.386;2023-02-26T09:59:59;25.00;21.00
70807;DHT22;58882;52.170;5.386;2023-02-26T10:02:54;25.00;20.80
70807;DHT22;58882;52.170;5.386;2023-02-26T10:08:43;25.10;20.80
70807;DHT22;58882;52.170;5.386;2023-02-26T10:11:52;25.20;20.80
70807;DHT22;58882;52.170;5.386;2023-02-26T10:21:29;25.40;20.60
70807;DHT22;58882;52.170;5.386;2023-02-26T10:24:41;25.40;20.50
70807;DHT22;58882;52.170;5.386;2023-02-26T10:28:07;25.40;20.40
70807;DHT22;58882;52.170;5.386;2023-02-26T10:30:38;25.40;20.40
70807;DHT22;58882;52.170;5.386;2023-02-26T10:33:35;25.60;20.50
70807;DHT22;58882;52.170;5.386;2023-02-26T10:37:04;25.50;20.60
70807;DHT22;58882;52.170;5.386;2023-02-26T10:39:54;25.50;20.30
70807;DHT22;58882;52.170;5.386;2023-02-26T10:43:02;25.50;20.50
70807;DHT22;58882;52.170;5.386;2023-02-26T10:51:25;25.40;20.80
70807;DHT22;58882;52.170;5.386;2023-02-26T10:54:44;25.40;20.40
70807;DHT22;58882;52.170;5.386;2023-02-26T10:57:34;25.40;20.30
70807;DHT22;58882;52.170;5.386;2023-02-26T11:00:23;25.30;20.30
70807;DHT22;58882;52.170;5.386;2023-02-26T11:03:05;25.30;20.30
70807;DHT22;58882;52.170;5.386;2023-02-26T11:06:01;25.30;20.40
70807;DHT22;58882;52.170;5.386;2023-02-26T11:08:44;25.10;20.30
70807;DHT22;58882;52.170;5.386;2023-02-26T11:11:41;24.80;20.50
70807;DHT22;58882;52.170;5.386;2023-02-26T11:14:22;24.50;20.80
70807;DHT22;58882;52.170;5.386;2023-02-26T11:17:20;24.20;21.10
70807;DHT22;58882;52.170;5.386;2023-02-26T11:20:04;23.80;21.20
70807;DHT22;58882;52.170;5.386;2023-02-26T11:23:17;23.60;21.60
70807;DHT22;58882;52.170;5.386;2023-02-26T11:25:56;23.30;21.70
70807;DHT22;58882;52.170;5.386;2023-02-26T11:28:54;23.10;21.70
70807;DHT22;58882;52.170;5.386;2023-02-26T11:31:34;22.80;21.80
70807;DHT22;58882;52.170;5.386;2023-02-26T11:34:23;22.70;22.00
70807;DHT22;58882;52.170;5.386;2023-02-26T11:37:03;22.50;22.00
70807;DHT22;58882;52.170;5.386;2023-02-26T11:39:59;22.30;22.10
70807;DHT22;58882;52.170;5.386;2023-02-26T11:42:54;22.20;22.20
70807;DHT22;58882;52.170;5.386;2023-02-26T11:45:58;22.00;22.30
70807;DHT22;58882;52.170;5.386;2023-02-26T11:48:55;21.90;22.50
70807;DHT22;58882;52.170;5.386;2023-02-26T11:51:42;21.70;22.70
70807;DHT22;58882;52.170;5.386;2023-02-26T11:54:34;21.70;22.90
70807;DHT22;58882;52.170;5.386;2023-02-26T11:57:17;21.60;22.90
70807;DHT22;58882;52.170;5.386;2023-02-26T12:00:22;21.50;23.10
70807;DHT22;58882;52.170;5.386;2023-02-26T12:03:06;21.40;23.00
70807;DHT22;58882;52.170;5.386;2023-02-26T12:06:00;21.30;23.10
70807;DHT22;58882;52.170;5.386;2023-02-26T12:08:36;21.30;23.20
70807;DHT22;58882;52.170;5.386;2023-02-26T12:11:48;21.20;23.30
70807;DHT22;58882;52.170;5.386;2023-02-26T12:17:41;21.00;23.40
70807;DHT22;58882;52.170;5.386;2023-02-26T12:20:21;20.90;23.40
70807;DHT22;58882;52.170;5.386;2023-02-26T12:26:56;20.70;23.50
70807;DHT22;58882;52.170;5.386;2023-02-26T12:46:24;21.20;23.60
70807;DHT22;58882;52.170;5.386;2023-02-26T12:49:01;21.30;23.50
70807;DHT22;58882;52.170;5.386;2023-02-26T12:52:36;21.40;23.30
70807;DHT22;58882;52.170;5.386;2023-02-26T13:01:07;21.60;23.20
70807;DHT22;58882;52.170;5.386;2023-02-26T13:19:48;21.80;23.20
70807;DHT22;58882;52.170;5.386;2023-02-26T13:22:41;21.80;23.20
70807;DHT22;58882;52.170;5.386;2023-02-26T13:28:40;21.70;23.20
70807;DHT22;58882;52.170;5.386;2023-02-26T13:31:32;21.70;23.10
70807;DHT22;58882;52.170;5.386;2023-02-26T13:34:43;21.70;23.10
70807;DHT22;58882;52.170;5.386;2023-02-26T13:37:37;21.60;23.20
70807;DHT22;58882;52.170;5.386;2023-02-26T13:53:33;21.50;23.20
70807;DHT22;58882;52.170;5.386;2023-02-26T13:59:45;21.50;23.30
70807;DHT22;58882;52.170;5.386;2023-02-26T14:02:53;21.50;23.40
70807;DHT22;58882;52.170;5.386;2023-02-26T14:08:43;21.40;23.40
70807;DHT22;58882;52.170;5.386;2023-02-26T14:11:43;21.30;23.40
70807;DHT22;58882;52.170;5.386;2023-02-26T14:14:38;21.30;24.20
70807;DHT22;58882;52.170;5.386;2023-02-26T14:20:37;21.20;23.40
70807;DHT22;58882;52.170;5.386;2023-02-26T14:23:35;21.20;23.40
70807;DHT22;58882;52.170;5.386;2023-02-26T14:26:14;21.10;23.50
70807;DHT22;58882;52.170;5.386;2023-02-26T14:35:40;21.00;23.50
70807;DHT22;58882;52.170;5.386;2023-02-26T14:38:24;20.90;23.50
70807;DHT22;58882;52.170;5.386;2023-02-26T14:41:23;20.90;23.50
70807;DHT22;58882;52.170;5.386;2023-02-26T14:44:13;20.80;23.50
70807;DHT22;58882;52.170;5.386;2023-02-26T14:47:01;20.80;23.70
70807;DHT22;58882;52.170;5.386;2023-02-26T14:49:56;20.70;23.60
70807;DHT22;58882;52.170;5.386;2023-02-26T14:53:09;20.70;23.70
70807;DHT22;58882;52.170;5.386;2023-02-26T14:56:30;20.70;23.80
70807;DHT22;58882;52.170;5.386;2023-02-26T15:05:34;20.50;23.80
70807;DHT22;58882;52.170;5.386;2023-02-26T15:08:56;20.60;23.90
70807;DHT22;58882;52.170;5.386;2023-02-26T15:15:09;20.40;24.70
70807;DHT22;58882;52.170;5.386;2023-02-26T15:21:09;20.30;24.00
70807;DHT22;58882;52.170;5.386;2023-02-26T15:23:53;20.30;24.10
70807;DHT22;58882;52.170;5.386;2023-02-26T15:27:08;20.30;24.10
70807;DHT22;58882;52.170;5.386;2023-02-26T15:29:48;20.20;24.10
70807;DHT22;58882;52.170;5.386;2023-02-26T15:32:36;20.20;24.20
70807;DHT22;58882;52.170;5.386;2023-02-26T15:35:19;20.10;24.20
70807;DHT22;58882;52.170;5.386;2023-02-26T15:38:08;20.10;24.30
70807;DHT22;58882;52.170;5.386;2023-02-26T15:40:52;20.10;24.30
70807;DHT22;58882;52.170;5.386;2023-02-26T15:43:43;20.00;24.30
70807;DHT22;58882;52.170;5.386;2023-02-26T15:46:35;20.00;24.40
70807;DHT22;58882;52.170;5.386;2023-02-26T15:49:32;20.00;24.40
70807;DHT22;58882;52.170;5.386;2023-02-26T15:52:20;19.90;24.40
70807;DHT22;58882;52.170;5.386;2023-02-26T15:55:16;19.80;24.40
70807;DHT22;58882;52.170;5.386;2023-02-26T15:57:57;19.80;24.60
70807;DHT22;58882;52.170;5.386;2023-02-26T16:00:53;19.70;24.60
70807;DHT22;58882;52.170;5.386;2023-02-26T16:03:31;19.70;24.60
70807;DHT22;58882;52.170;5.386;2023-02-26T16:06:39;19.60;24.70
70807;DHT22;58882;52.170;5.386;2023-02-26T16:09:32;19.60;24.80
70807;DHT22;58882;52.170;5.386;2023-02-26T16:12:38;19.60;24.80
70807;DHT22;58882;52.170;5.386;2023-02-26T16:15:35;19.50;24.90
70807;DHT22;58882;52.170;5.386;2023-02-26T16:18:24;19.50;24.90
70807;DHT22;58882;52.170;5.386;2023-02-26T16:21:07;19.40;25.00
70807;DHT22;58882;52.170;5.386;2023-02-26T16:23:55;19.40;25.00
70807;DHT22;58882;52.170;5.386;2023-02-26T16:26:40;19.30;25.00
70807;DHT22;58882;52.170;5.386;2023-02-26T16:29:30;19.30;25.10
70807;DHT22;58882;52.170;5.386;2023-02-26T16:32:12;19.20;25.20
70807;DHT22;58882;52.170;5.386;2023-02-26T16:35:14;19.20;25.30
70807;DHT22;58882;52.170;5.386;2023-02-26T16:37:55;19.20;25.40
70807;DHT22;58882;52.170;5.386;2023-02-26T16:40:44;19.10;26.20
70807;DHT22;58882;52.170;5.386;2023-02-26T16:46:42;19.00;25.40
70807;DHT22;58882;52.170;5.386;2023-02-26T16:49:38;19.00;25.50
70807;DHT22;58882;52.170;5.386;2023-02-26T16:52:22;18.90;25.60
70807;DHT22;58882;52.170;5.386;2023-02-26T16:55:11;18.80;25.60
70807;DHT22;58882;52.170;5.386;2023-02-26T16:57:57;18.80;25.70
70807;DHT22;58882;52.170;5.386;2023-02-26T17:01:00;18.80;25.90
70807;DHT22;58882;52.170;5.386;2023-02-26T17:03:40;18.70;25.80
70807;DHT22;58882;52.170;5.386;2023-02-26T17:06:29;18.70;25.90
70807;DHT22;58882;52.170;5.386;2023-02-26T17:12:23;18.70;26.10
70807;DHT22;58882;52.170;5.386;2023-02-26T17:15:29;18.60;26.10
70807;DHT22;58882;52.170;5.386;2023-02-26T17:18:17;18.50;26.20
70807;DHT22;58882;52.170;5.386;2023-02-26T17:20:58;18.50;26.30
70807;DHT22;58882;52.170;5.386;2023-02-26T17:23:48;18.40;26.40
70807;DHT22;58882;52.170;5.386;2023-02-26T17:26:28;18.40;26.40
70807;DHT22;58882;52.170;5.386;2023-02-26T17:29:32;18.40;26.70
70807;DHT22;58882;52.170;5.386;2023-02-26T17:32:21;18.30;26.50
70807;DHT22;58882;52.170;5.386;2023-02-26T17:35:03;18.30;26.60
70807;DHT22;58882;52.170;5.386;2023-02-26T17:37:52;18.20;26.70
70807;DHT22;58882;52.170;5.386;2023-02-26T17:40:34;18.20;26.70
70807;DHT22;58882;52.170;5.386;2023-02-26T17:43:22;18.10;26.80
70807;DHT22;58882;52.170;5.386;2023-02-26T17:46:02;18.10;26.90
70807;DHT22;58882;52.170;5.386;2023-02-26T17:48:49;18.10;26.90
70807;DHT22;58882;52.170;5.386;2023-02-26T17:51:29;18.00;26.90
70807;DHT22;58882;52.170;5.386;2023-02-26T17:54:23;18.00;26.90
70807;DHT22;58882;52.170;5.386;2023-02-26T17:57:04;18.00;27.00
70807;DHT22;58882;52.170;5.386;2023-02-26T17:59:51;18.00;27.00
70807;DHT22;58882;52.170;5.386;2023-02-26T18:02:40;17.90;27.10
70807;DHT22;58882;52.170;5.386;2023-02-26T18:05:34;17.90;27.00
70807;DHT22;58882;52.170;5.386;2023-02-26T18:08:21;17.70;27.00
70807;DHT22;58882;52.170;5.386;2023-02-26T18:11:16;17.40;28.00
70807;DHT22;58882;52.170;5.386;2023-02-26T18:13:58;17.20;27.50
70807;DHT22;58882;52.170;5.386;2023-02-26T18:16:46;17.00;27.70
70807;DHT22;58882;52.170;5.386;2023-02-26T18:19:26;16.80;27.90
70807;DHT22;58882;52.170;5.386;2023-02-26T18:22:14;16.70;28.00
70807;DHT22;58882;52.170;5.386;2023-02-26T18:24:55;16.50;28.10
70807;DHT22;58882;52.170;5.386;2023-02-26T18:27:43;16.40;28.20
70807;DHT22;58882;52.170;5.386;2023-02-26T18:30:28;16.30;28.40
70807;DHT22;58882;52.170;5.386;2023-02-26T18:33:20;16.20;28.50
70807;DHT22;58882;52.170;5.386;2023-02-26T18:36:00;16.10;28.70
70807;DHT22;58882;52.170;5.386;2023-02-26T18:38:47;16.00;28.70
70807;DHT22;58882;52.170;5.386;2023-02-26T18:41:28;15.90;29.60
70807;DHT22;58882;52.170;5.386;2023-02-26T18:44:15;15.90;28.80
70807;DHT22;58882;52.170;5.386;2023-02-26T18:46:55;15.80;29.00
70807;DHT22;58882;52.170;5.386;2023-02-26T18:49:50;15.70;29.00
70807;DHT22;58882;52.170;5.386;2023-02-26T18:52:23;15.60;29.10
70807;DHT22;58882;52.170;5.386;2023-02-26T18:55:17;15.60;29.20
70807;DHT22;58882;52.170;5.386;2023-02-26T18:57:50;15.50;29.20
70807;DHT22;58882;52.170;5.386;2023-02-26T19:00:44;15.50;29.30
70807;DHT22;58882;52.170;5.386;2023-02-26T19:03:24;15.40;29.50
70807;DHT22;58882;52.170;5.386;2023-02-26T19:06:11;15.40;29.50
70807;DHT22;58882;52.170;5.386;2023-02-26T19:08:51;15.30;29.60
70807;DHT22;58882;52.170;5.386;2023-02-26T19:11:41;15.30;29.70
70807;DHT22;58882;52.170;5.386;2023-02-26T19:14:22;15.20;29.80
70807;DHT22;58882;52.170;5.386;2023-02-26T19:17:09;15.20;30.70
70807;DHT22;58882;52.170;5.386;2023-02-26T19:19:49;15.20;29.80
70807;DHT22;58882;52.170;5.386;2023-02-26T19:22:36;15.10;29.90
70807;DHT22;58882;52.170;5.386;2023-02-26T19:25:16;15.10;30.00
70807;DHT22;58882;52.170;5.386;2023-02-26T19:28:12;15.00;30.00
70807;DHT22;58882;52.170;5.386;2023-02-26T19:30:53;15.00;31.10
70807;DHT22;58882;52.170;5.386;2023-02-26T19:33:40;15.00;30.10
70807;DHT22;58882;52.170;5.386;2023-02-26T19:36:20;15.00;30.10
70807;DHT22;58882;52.170;5.386;2023-02-26T19:39:13;14.90;30.10
70807;DHT22;58882;52.170;5.386;2023-02-26T19:41:54;14.90;30.30
70807;DHT22;58882;52.170;5.386;2023-02-26T19:44:41;14.80;30.40
70807;DHT22;58882;52.170;5.386;2023-02-26T19:47:21;14.90;30.40
70807;DHT22;58882;52.170;5.386;2023-02-26T19:50:15;14.80;30.40
70807;DHT22;58882;52.170;5.386;2023-02-26T19:52:57;14.80;30.60
70807;DHT22;58882;52.170;5.386;2023-02-26T19:55:51;14.80;30.60
70807;DHT22;58882;52.170;5.386;2023-02-26T19:58:32;14.70;30.70
70807;DHT22;58882;52.170;5.386;2023-02-26T20:01:26;14.70;30.70
70807;DHT22;58882;52.170;5.386;2023-02-26T20:04:00;14.70;30.90
70807;DHT22;58882;52.170;5.386;2023-02-26T20:06:54;14.70;30.80
70807;DHT22;58882;52.170;5.386;2023-02-26T20:09:27;14.60;30.80
70807;DHT22;58882;52.170;5.386;2023-02-26T20:12:21;14.60;30.90
70807;DHT22;58882;52.170;5.386;2023-02-26T20:15:01;14.60;31.00
70807;DHT22;58882;52.170;5.386;2023-02-26T20:17:48;14.60;31.10
70807;DHT22;58882;52.170;5.386;2023-02-26T20:20:28;14.60;31.40
70807;DHT22;58882;52.170;5.386;2023-02-26T20:23:15;14.60;31.60
70807;DHT22;58882;52.170;5.386;2023-02-26T20:25:56;14.50;31.70